AirNav   Pilot Hours Calculator
 
 861 users online  

11MI Wagner's Landing Heliport
Clarkston, Michigan, USA

GOING TO CLARKSTON?


FAA INFORMATION EFFECTIVE 02 JANUARY 2020

Location

FAA Identifier: 11MI
Lat/Long: 42-44-18.1050N 083-26-14.7910W
42-44.301750N 083-26.246517W
42.7383625,-83.4374419
(estimated)
Elevation: 975 ft. / 297 m (estimated)
Variation: 05W (1985)
From city: 1 mile W of CLARKSTON, MI
Time zone: UTC -5 (UTC -4 during Daylight Saving Time)
Zip code: 48346

Heliport Operations

Heliport use: Private use. Permission required prior to landing
Activation date: 02/1987
Control tower: no
ARTCC: CLEVELAND CENTER
FSS: LANSING FLIGHT SERVICE STATION
Attendance: UNATNDD
Wind indicator: yes
Segmented circle: no

Heliport Communications

WX ASOS at PTK (4 nm S): 125.025 (248-886-8551)
WX AWOS-3 at VLL (16 nm SE): 119.475 (248-288-4649)
WX ASOS at FNT (19 nm NW): 133.15 (810-342-7804)

Nearby radio navigation aids

VOR radial/distance  VOR name  Freq  Var
FNTr141/19.3FLINT VORTAC116.9006W
SVMr022/21.0SALEM VORTAC114.3003W
DXOr000/31.7DETROIT VOR/DME113.4006W
YQGr323/39.8WINDSOR VOR/DME113.8006W

Heliport Services

Runway Information

Helipad H1

Dimensions: 50 x 50 ft. / 15 x 15 m
Surface: turf
Traffic pattern: leftleft
Markings: basic

Heliport Ownership and Management from official FAA records

Ownership: Privately-owned
Owner: RONALD G. WAGNER
7500 DEER PARK TRAIL
48346
Phone 313-625-9393
Manager: RONALD G. WAGNER
7500 DEER PARK TRAIL
48346
Phone 313-625-9393

Heliport Operational Statistics

Aircraft based on the field: 1
Helicopters: 1
    

Additional Remarks

A52-H1 40' TREES 200' N & 150' S; 20' BLDG 250' E.
FOR CD CTC DETROIT APCH AT 800-499-8181.

Instrument Procedures

There are no published instrument procedures at 11MI.

Some nearby airports with instrument procedures:

KPTK - Oakland County International Airport (4 nm S)
9G2 - Price's Airport (15 nm W)
Y47 - Oakland Southwest Airport (16 nm SW)
KVLL - Oakland/Troy Airport (16 nm SE)
KFNT - Bishop International Airport (19 nm NW)
 
Loc | Ops | Rwys | IFR | FBO | Links
Com | Nav | Svcs | Stats | Notes
Area around 11MI (Wagner's Landing Heliport)
 
Road maps at: MapQuest Bing Google
 
Aerial photo
No photo
 
Sectional chart

 
Airport distance calculator
Flying to Wagner's Landing Heliport? Find the distance to fly.

From to 11MI

Sunrise and sunset
Times for 19-Jan-2020
 Local
(UTC-5)
 Zulu
(UTC)
Morning civil twilight07:2912:29
Sunrise08:0013:00
Sunset17:2922:29
Evening civil twilight18:0023:00

Current date and time
Zulu (UTC)  19-Jan-2020 12:07:15
Local (UTC-5)  19-Jan-2020 07:07:15
 
METAR
KPTK 
4nm S 
191153Z 28020G28KT 3SM -SN BLSN OVC014 M08/M11 A2989 RMK AO2 PK WND 26034/1133 SLP133 P0000 60000 70016 T10781111 11044 21078 53026
KVLL 
16nm SE 
191155Z AUTO 26014G24KT 10SM OVC017 M06/M09 A2994 RMK AO2 T10651090 11031 21065
KFNT 
19nm NW 
191153Z 27013G20KT 8SM OVC014 M06/M10 A2991 RMK AO2 SNB11E40 SLP140 P0000 60000 70013 I6001 T10611100 11033 21061 51022
TAF
KPTK 
4nm S 
190530Z 1906/2006 26020G33KT 6SM -SHSN OVC018 TEMPO 1906/1909 3SM -SHSN OVC015 FM190900 27020G30KT 6SM -SHSN BKN015 OVC025 FM191300 27017G25KT P6SM -SHSN BKN025 OVC035 FM191600 29015G23KT 5SM -SHSN OVC025 TEMPO 1916/1918 3/4SM -SHSN OVC009 FM191800 34012G20KT P6SM SCT025 BKN035 FM200000 33008KT P6SM BKN035 FM200300 32007KT P6SM SKC
KFNT 
19nm NW 
191120Z 1912/2012 26020G25KT P6SM -SHSN BKN015 TEMPO 1914/1916 1SM -SHSN OVC009 FM191600 34012G20KT P6SM SCT025 BKN035 FM192300 33008KT P6SM BKN035 FM200200 32007KT P6SM SKC
NOTAMs
Click for the latest NOTAMs
NOTAMs are issued by the DoD/FAA and will open in a separate window not controlled by AirNav.

 

 
 

Would you like to see your business listed on this page?

 If your business provides an interesting product or service to pilots, flight crews, aircraft, or users of the Wagner's Landing Heliport, you should consider listing it here.  To start the listing process, click on the button below
 
Add a business
 

Other Pages about Wagner's Landing Heliport

Update a link
 
Copyright © AirNav, LLC. All rights reserved. Privacy Policy  Contact